Murrurundi Post Office, New South Wales

2:04 AM AEDT on January 27, 2015 (GMT +1100)
Tamworth | Change Station
CLOSE
Current Station
Airport
Location: TAMWORTH AIRPOR,
Elevation: 1345 ft
Nearby Weather Stations

Elev 1345 ft 31.08 °S, 150.85 °E | Updated 4 minutes ago

Scattered Clouds
Scattered Clouds
72 °F
Feels Like 72 °F
N
13
Wind Variable Wind from ESE

Today
High -- | Low -- °F
--% Chance of Precip.
Yesterday
High -- | Low -- °F
Precip. -- in
6:16 AM 8:01 PM
Waxing Crescent, 44% visible
Pressure 29.80 in
Visibility 6.2 miles
Clouds Scattered Clouds 12500 ft
Dew Point 59 °F
Humidity 64%
Rainfall 0.00 in
Snow Depth Not available.
UV 0 out of 12
Pollen Not available.
Air Quality Not available.
Flu Activity Not available.
METAR YSTW 261500Z AUTO 12011KT 9999 // SCT125 22/15 Q1009

More Conditions Fewer Conditions

Pressure 29.80 in
Visibility 6.2 miles
Clouds Scattered Clouds 12500 ft
Dew Point 59 °F
Humidity 64%
Rainfall 0.00 in
Snow Depth Not available.
UV 0 out of 12
Pollen Not available.
Air Quality Not available.
Flu Activity Not available.
METAR YSTW 261500Z AUTO 12011KT 9999 // SCT125 22/15 Q1009

More Conditions Fewer Conditions

10-Day Weather Forecast

Almanac

Astronomy

Jan. 27, 2015 Rise Set
Actual Time
Civil Twilight
Nautical Twilight
Astronomical Twilight
Moon
Length of Visible Light
Length of Day
Tomorrow will be .
, % of the Moon is Illuminated

Today's Extremes

Country Highs Country Lows

Community

WunderPhotos

Upload Photos

1,790,232 photos uploaded!

WunderBlogs® & News

Nearby

Air Quality

  Air Quality AQ Index Pollutant
Not available.

Snow Depth

Station Depth Elevation

Earthquake Activity

City Distance Mag. Time & Date
Minimum magnitude displayed is 2.5.

Coastal Water Temperatures

Place Temperature

Nearby Weather Stations